sensor_id;sensor_type;location;lat;lon;timestamp;temperature;humidity
71082;SHT31;58740;50.672;18.690;2023-04-19T00:02:23;11.06;73.98
71082;SHT31;58740;50.672;18.690;2023-04-19T00:04:52;11.05;73.87
71082;SHT31;58740;50.672;18.690;2023-04-19T00:07:20;11.04;73.84
71082;SHT31;58740;50.672;18.690;2023-04-19T00:09:47;11.03;73.90
71082;SHT31;58740;50.672;18.690;2023-04-19T00:12:15;11.02;73.86
71082;SHT31;58740;50.672;18.690;2023-04-19T00:14:43;11.01;73.84
71082;SHT31;58740;50.672;18.690;2023-04-19T00:17:11;11.00;73.81
71082;SHT31;58740;50.672;18.690;2023-04-19T00:19:39;10.97;73.74
71082;SHT31;58740;50.672;18.690;2023-04-19T00:22:07;10.96;73.79
71082;SHT31;58740;50.672;18.690;2023-04-19T00:24:35;10.94;73.80
71082;SHT31;58740;50.672;18.690;2023-04-19T00:27:02;10.95;73.80
71082;SHT31;58740;50.672;18.690;2023-04-19T00:29:30;10.94;73.76
71082;SHT31;58740;50.672;18.690;2023-04-19T00:31:58;10.92;73.76
71082;SHT31;58740;50.672;18.690;2023-04-19T00:34:25;10.92;73.70
71082;SHT31;58740;50.672;18.690;2023-04-19T00:36:53;10.91;73.72
71082;SHT31;58740;50.672;18.690;2023-04-19T00:39:22;10.90;73.66
71082;SHT31;58740;50.672;18.690;2023-04-19T00:41:50;10.89;73.66
71082;SHT31;58740;50.672;18.690;2023-04-19T00:44:19;10.88;73.65
71082;SHT31;58740;50.672;18.690;2023-04-19T00:46:47;10.87;73.63
71082;SHT31;58740;50.672;18.690;2023-04-19T00:49:15;10.85;73.60
71082;SHT31;58740;50.672;18.690;2023-04-19T00:51:47;10.84;73.58
71082;SHT31;58740;50.672;18.690;2023-04-19T00:54:17;10.82;73.57
71082;SHT31;58740;50.672;18.690;2023-04-19T00:56:46;10.82;73.64
71082;SHT31;58740;50.672;18.690;2023-04-19T00:59:14;10.81;73.69
71082;SHT31;58740;50.672;18.690;2023-04-19T01:01:43;10.80;73.60
71082;SHT31;58740;50.672;18.690;2023-04-19T01:04:11;10.78;73.62
71082;SHT31;58740;50.672;18.690;2023-04-19T01:06:40;10.76;73.64
71082;SHT31;58740;50.672;18.690;2023-04-19T01:09:08;10.74;73.71
71082;SHT31;58740;50.672;18.690;2023-04-19T01:11:36;10.72;73.79
71082;SHT31;58740;50.672;18.690;2023-04-19T01:14:04;10.71;73.79
71082;SHT31;58740;50.672;18.690;2023-04-19T01:16:31;10.69;73.80
71082;SHT31;58740;50.672;18.690;2023-04-19T01:19:00;10.69;73.84
71082;SHT31;58740;50.672;18.690;2023-04-19T01:21:27;10.68;73.82
71082;SHT31;58740;50.672;18.690;2023-04-19T01:23:56;10.65;73.82
71082;SHT31;58740;50.672;18.690;2023-04-19T01:26:24;10.62;73.81
71082;SHT31;58740;50.672;18.690;2023-04-19T01:28:52;10.60;73.91
71082;SHT31;58740;50.672;18.690;2023-04-19T01:31:20;10.57;73.99
71082;SHT31;58740;50.672;18.690;2023-04-19T01:33:48;10.55;74.00
71082;SHT31;58740;50.672;18.690;2023-04-19T01:36:16;10.53;74.12
71082;SHT31;58740;50.672;18.690;2023-04-19T01:38:43;10.52;74.20
71082;SHT31;58740;50.672;18.690;2023-04-19T01:41:14;10.48;74.22
71082;SHT31;58740;50.672;18.690;2023-04-19T01:43:42;10.45;74.30
71082;SHT31;58740;50.672;18.690;2023-04-19T01:46:10;10.43;74.35
71082;SHT31;58740;50.672;18.690;2023-04-19T01:48:37;10.41;74.40
71082;SHT31;58740;50.672;18.690;2023-04-19T01:51:05;10.39;74.42
71082;SHT31;58740;50.672;18.690;2023-04-19T01:53:32;10.39;74.47
71082;SHT31;58740;50.672;18.690;2023-04-19T01:56:00;10.35;74.50
71082;SHT31;58740;50.672;18.690;2023-04-19T01:58:28;10.32;74.58
71082;SHT31;58740;50.672;18.690;2023-04-19T02:00:55;10.29;74.73
71082;SHT31;58740;50.672;18.690;2023-04-19T02:03:23;10.28;74.85
71082;SHT31;58740;50.672;18.690;2023-04-19T02:05:51;10.28;75.02
71082;SHT31;58740;50.672;18.690;2023-04-19T02:08:19;10.26;75.17
71082;SHT31;58740;50.672;18.690;2023-04-19T02:10:46;10.22;75.31
71082;SHT31;58740;50.672;18.690;2023-04-19T02:13:14;10.19;75.45
71082;SHT31;58740;50.672;18.690;2023-04-19T02:15:42;10.16;75.57
71082;SHT31;58740;50.672;18.690;2023-04-19T02:18:10;10.15;75.78
71082;SHT31;58740;50.672;18.690;2023-04-19T02:20:38;10.10;75.98
71082;SHT31;58740;50.672;18.690;2023-04-19T02:23:06;10.08;76.16
71082;SHT31;58740;50.672;18.690;2023-04-19T02:25:33;10.06;76.33
71082;SHT31;58740;50.672;18.690;2023-04-19T02:28:01;10.05;76.53
71082;SHT31;58740;50.672;18.690;2023-04-19T02:30:29;10.04;76.79
71082;SHT31;58740;50.672;18.690;2023-04-19T02:32:56;10.03;77.02
71082;SHT31;58740;50.672;18.690;2023-04-19T02:35:25;10.01;77.24
71082;SHT31;58740;50.672;18.690;2023-04-19T02:37:52;10.01;77.36
71082;SHT31;58740;50.672;18.690;2023-04-19T02:40:20;10.00;77.41
71082;SHT31;58740;50.672;18.690;2023-04-19T02:42:49;9.96;77.22
71082;SHT31;58740;50.672;18.690;2023-04-19T02:45:17;9.92;77.35
71082;SHT31;58740;50.672;18.690;2023-04-19T02:47:44;9.90;77.45
71082;SHT31;58740;50.672;18.690;2023-04-19T02:50:13;9.91;77.46
71082;SHT31;58740;50.672;18.690;2023-04-19T02:52:43;9.92;77.32
71082;SHT31;58740;50.672;18.690;2023-04-19T02:55:10;9.91;77.32
71082;SHT31;58740;50.672;18.690;2023-04-19T02:57:38;9.90;77.17
71082;SHT31;58740;50.672;18.690;2023-04-19T03:00:06;9.90;77.03
71082;SHT31;58740;50.672;18.690;2023-04-19T03:02:35;9.89;76.86
71082;SHT31;58740;50.672;18.690;2023-04-19T03:05:04;9.86;76.84
71082;SHT31;58740;50.672;18.690;2023-04-19T03:07:32;9.84;76.77
71082;SHT31;58740;50.672;18.690;2023-04-19T03:10:00;9.81;76.67
71082;SHT31;58740;50.672;18.690;2023-04-19T03:12:28;9.78;76.62
71082;SHT31;58740;50.672;18.690;2023-04-19T03:14:55;9.75;76.75
71082;SHT31;58740;50.672;18.690;2023-04-19T03:17:23;9.72;76.89
71082;SHT31;58740;50.672;18.690;2023-04-19T03:19:51;9.71;77.03
71082;SHT31;58740;50.672;18.690;2023-04-19T03:22:18;9.70;77.21
71082;SHT31;58740;50.672;18.690;2023-04-19T03:24:46;9.68;77.45
71082;SHT31;58740;50.672;18.690;2023-04-19T03:27:14;9.67;77.61
71082;SHT31;58740;50.672;18.690;2023-04-19T03:29:42;9.65;77.79
71082;SHT31;58740;50.672;18.690;2023-04-19T03:32:09;9.63;77.95
71082;SHT31;58740;50.672;18.690;2023-04-19T03:34:37;9.62;78.00
71082;SHT31;58740;50.672;18.690;2023-04-19T03:37:05;9.59;78.11
71082;SHT31;58740;50.672;18.690;2023-04-19T03:39:32;9.57;78.16
71082;SHT31;58740;50.672;18.690;2023-04-19T03:42:00;9.58;78.24
71082;SHT31;58740;50.672;18.690;2023-04-19T03:44:30;9.60;78.20
71082;SHT31;58740;50.672;18.690;2023-04-19T03:46:59;9.62;78.22
71082;SHT31;58740;50.672;18.690;2023-04-19T03:49:27;9.61;78.20
71082;SHT31;58740;50.672;18.690;2023-04-19T03:51:55;9.59;78.11
71082;SHT31;58740;50.672;18.690;2023-04-19T03:54:23;9.57;78.19
71082;SHT31;58740;50.672;18.690;2023-04-19T03:56:50;9.56;78.27
71082;SHT31;58740;50.672;18.690;2023-04-19T03:59:18;9.54;78.30
71082;SHT31;58740;50.672;18.690;2023-04-19T04:01:46;9.52;78.38
71082;SHT31;58740;50.672;18.690;2023-04-19T04:04:13;9.52;78.41
71082;SHT31;58740;50.672;18.690;2023-04-19T04:06:42;9.54;78.42
71082;SHT31;58740;50.672;18.690;2023-04-19T04:09:10;9.55;78.52
71082;SHT31;58740;50.672;18.690;2023-04-19T04:11:38;9.54;78.49
71082;SHT31;58740;50.672;18.690;2023-04-19T04:14:06;9.51;78.18
71082;SHT31;58740;50.672;18.690;2023-04-19T04:16:33;9.49;78.22
71082;SHT31;58740;50.672;18.690;2023-04-19T04:19:01;9.49;78.09
71082;SHT31;58740;50.672;18.690;2023-04-19T04:21:29;9.45;78.05
71082;SHT31;58740;50.672;18.690;2023-04-19T04:23:57;9.45;78.07
71082;SHT31;58740;50.672;18.690;2023-04-19T04:26:24;9.42;78.03
71082;SHT31;58740;50.672;18.690;2023-04-19T04:28:57;9.41;78.08
71082;SHT31;58740;50.672;18.690;2023-04-19T04:31:24;9.40;78.04
71082;SHT31;58740;50.672;18.690;2023-04-19T04:33:52;9.38;78.04
71082;SHT31;58740;50.672;18.690;2023-04-19T04:36:21;9.35;78.06
71082;SHT31;58740;50.672;18.690;2023-04-19T04:38:49;9.34;78.15
71082;SHT31;58740;50.672;18.690;2023-04-19T04:41:17;9.34;78.16
71082;SHT31;58740;50.672;18.690;2023-04-19T04:43:49;9.35;78.16
71082;SHT31;58740;50.672;18.690;2023-04-19T04:46:37;9.35;78.05
71082;SHT31;58740;50.672;18.690;2023-04-19T04:49:05;9.34;78.09
71082;SHT31;58740;50.672;18.690;2023-04-19T04:51:36;9.28;77.77
71082;SHT31;58740;50.672;18.690;2023-04-19T04:54:04;9.19;77.72
71082;SHT31;58740;50.672;18.690;2023-04-19T04:56:32;9.11;77.53
71082;SHT31;58740;50.672;18.690;2023-04-19T04:58:59;9.02;77.52
71082;SHT31;58740;50.672;18.690;2023-04-19T05:01:27;8.87;77.50
71082;SHT31;58740;50.672;18.690;2023-04-19T05:03:55;8.77;77.64
71082;SHT31;58740;50.672;18.690;2023-04-19T05:06:23;8.68;77.84
71082;SHT31;58740;50.672;18.690;2023-04-19T05:08:51;8.64;78.05
71082;SHT31;58740;50.672;18.690;2023-04-19T05:11:19;8.58;78.25
71082;SHT31;58740;50.672;18.690;2023-04-19T05:13:47;8.55;78.11
71082;SHT31;58740;50.672;18.690;2023-04-19T05:16:15;8.51;77.68
71082;SHT31;58740;50.672;18.690;2023-04-19T05:18:43;8.46;77.38
71082;SHT31;58740;50.672;18.690;2023-04-19T05:21:10;8.39;77.52
71082;SHT31;58740;50.672;18.690;2023-04-19T05:23:38;8.36;78.12
71082;SHT31;58740;50.672;18.690;2023-04-19T05:26:06;8.37;78.55
71082;SHT31;58740;50.672;18.690;2023-04-19T05:28:33;8.41;78.49
71082;SHT31;58740;50.672;18.690;2023-04-19T05:31:01;8.45;78.53
71082;SHT31;58740;50.672;18.690;2023-04-19T05:33:29;8.45;78.23
71082;SHT31;58740;50.672;18.690;2023-04-19T05:35:57;8.42;78.09
71082;SHT31;58740;50.672;18.690;2023-04-19T05:38:24;8.39;78.10
71082;SHT31;58740;50.672;18.690;2023-04-19T05:40:52;8.38;78.33
71082;SHT31;58740;50.672;18.690;2023-04-19T05:43:20;8.39;78.52
71082;SHT31;58740;50.672;18.690;2023-04-19T05:45:48;8.40;78.54
71082;SHT31;58740;50.672;18.690;2023-04-19T05:48:15;8.38;78.68
71082;SHT31;58740;50.672;18.690;2023-04-19T05:50:43;8.37;78.92
71082;SHT31;58740;50.672;18.690;2023-04-19T05:53:11;8.36;79.02
71082;SHT31;58740;50.672;18.690;2023-04-19T05:55:39;8.36;79.04
71082;SHT31;58740;50.672;18.690;2023-04-19T05:58:07;8.31;78.99
71082;SHT31;58740;50.672;18.690;2023-04-19T06:00:34;8.28;79.16
71082;SHT31;58740;50.672;18.690;2023-04-19T06:03:03;8.25;79.07
71082;SHT31;58740;50.672;18.690;2023-04-19T06:05:31;8.20;79.20
71082;SHT31;58740;50.672;18.690;2023-04-19T06:08:00;8.15;79.19
71082;SHT31;58740;50.672;18.690;2023-04-19T06:10:29;8.09;79.18
71082;SHT31;58740;50.672;18.690;2023-04-19T06:13:07;8.04;79.27
71082;SHT31;58740;50.672;18.690;2023-04-19T06:15:35;8.01;79.30
71082;SHT31;58740;50.672;18.690;2023-04-19T06:18:02;7.95;79.32
71082;SHT31;58740;50.672;18.690;2023-04-19T06:20:32;7.90;79.46
71082;SHT31;58740;50.672;18.690;2023-04-19T06:22:59;7.91;79.59
71082;SHT31;58740;50.672;18.690;2023-04-19T06:25:27;7.90;79.54
71082;SHT31;58740;50.672;18.690;2023-04-19T06:27:55;7.91;79.58
71082;SHT31;58740;50.672;18.690;2023-04-19T06:30:23;7.90;79.39
71082;SHT31;58740;50.672;18.690;2023-04-19T06:32:51;7.85;79.53
71082;SHT31;58740;50.672;18.690;2023-04-19T06:35:19;7.82;79.51
71082;SHT31;58740;50.672;18.690;2023-04-19T06:37:47;7.78;79.56
71082;SHT31;58740;50.672;18.690;2023-04-19T06:40:17;7.74;79.58
71082;SHT31;58740;50.672;18.690;2023-04-19T06:42:45;7.68;79.56
71082;SHT31;58740;50.672;18.690;2023-04-19T06:45:13;7.62;79.53
71082;SHT31;58740;50.672;18.690;2023-04-19T06:47:42;7.58;79.70
71082;SHT31;58740;50.672;18.690;2023-04-19T06:50:10;7.60;79.72
71082;SHT31;58740;50.672;18.690;2023-04-19T06:52:38;7.57;79.56
71082;SHT31;58740;50.672;18.690;2023-04-19T06:55:06;7.52;79.72
71082;SHT31;58740;50.672;18.690;2023-04-19T06:57:34;7.51;79.72
71082;SHT31;58740;50.672;18.690;2023-04-19T07:00:02;7.50;79.67
71082;SHT31;58740;50.672;18.690;2023-04-19T07:02:32;7.45;79.38
71082;SHT31;58740;50.672;18.690;2023-04-19T07:05:01;7.40;79.36
71082;SHT31;58740;50.672;18.690;2023-04-19T07:07:28;7.35;79.44
71082;SHT31;58740;50.672;18.690;2023-04-19T07:09:56;7.30;79.50
71082;SHT31;58740;50.672;18.690;2023-04-19T07:12:24;7.29;79.34
71082;SHT31;58740;50.672;18.690;2023-04-19T07:14:52;7.26;79.36
71082;SHT31;58740;50.672;18.690;2023-04-19T07:17:22;7.24;79.32
71082;SHT31;58740;50.672;18.690;2023-04-19T07:19:50;7.25;79.39
71082;SHT31;58740;50.672;18.690;2023-04-19T07:22:18;7.21;79.12
71082;SHT31;58740;50.672;18.690;2023-04-19T07:24:46;7.14;79.22
71082;SHT31;58740;50.672;18.690;2023-04-19T07:27:14;7.07;79.28
71082;SHT31;58740;50.672;18.690;2023-04-19T07:29:42;7.04;79.41
71082;SHT31;58740;50.672;18.690;2023-04-19T07:32:11;7.03;79.29
71082;SHT31;58740;50.672;18.690;2023-04-19T07:34:40;7.02;79.34
71082;SHT31;58740;50.672;18.690;2023-04-19T07:37:08;7.01;79.38
71082;SHT31;58740;50.672;18.690;2023-04-19T07:39:37;7.01;79.36
71082;SHT31;58740;50.672;18.690;2023-04-19T07:42:05;6.98;79.29
71082;SHT31;58740;50.672;18.690;2023-04-19T07:44:33;6.99;79.37
71082;SHT31;58740;50.672;18.690;2023-04-19T07:47:02;7.01;79.36
71082;SHT31;58740;50.672;18.690;2023-04-19T07:49:32;7.05;79.36
71082;SHT31;58740;50.672;18.690;2023-04-19T07:52:00;7.07;79.36
71082;SHT31;58740;50.672;18.690;2023-04-19T07:54:28;7.07;79.30
71082;SHT31;58740;50.672;18.690;2023-04-19T07:56:56;7.10;79.35
71082;SHT31;58740;50.672;18.690;2023-04-19T07:59:25;7.12;78.98
71082;SHT31;58740;50.672;18.690;2023-04-19T08:01:53;7.08;79.02
71082;SHT31;58740;50.672;18.690;2023-04-19T08:04:20;7.08;79.03
71082;SHT31;58740;50.672;18.690;2023-04-19T08:06:50;7.08;79.19
71082;SHT31;58740;50.672;18.690;2023-04-19T08:09:19;7.09;79.21
71082;SHT31;58740;50.672;18.690;2023-04-19T08:11:47;7.11;79.08
71082;SHT31;58740;50.672;18.690;2023-04-19T08:14:14;7.12;79.08
71082;SHT31;58740;50.672;18.690;2023-04-19T08:16:59;7.15;79.19
71082;SHT31;58740;50.672;18.690;2023-04-19T08:19:29;7.20;79.15
71082;SHT31;58740;50.672;18.690;2023-04-19T08:21:57;7.23;79.16
71082;SHT31;58740;50.672;18.690;2023-04-19T08:24:25;7.25;78.99
71082;SHT31;58740;50.672;18.690;2023-04-19T08:26:53;7.24;78.83
71082;SHT31;58740;50.672;18.690;2023-04-19T08:29:21;7.24;78.86
71082;SHT31;58740;50.672;18.690;2023-04-19T08:31:49;7.23;78.86
71082;SHT31;58740;50.672;18.690;2023-04-19T08:34:17;7.23;78.89
71082;SHT31;58740;50.672;18.690;2023-04-19T08:36:45;7.22;78.95
71082;SHT31;58740;50.672;18.690;2023-04-19T08:39:30;7.23;78.86
71082;SHT31;58740;50.672;18.690;2023-04-19T08:42:07;7.22;78.77
71082;SHT31;58740;50.672;18.690;2023-04-19T08:44:55;7.23;78.87
71082;SHT31;58740;50.672;18.690;2023-04-19T08:47:44;7.23;78.83
71082;SHT31;58740;50.672;18.690;2023-04-19T08:50:26;7.24;79.02
71082;SHT31;58740;50.672;18.690;2023-04-19T08:53:02;7.30;78.95
71082;SHT31;58740;50.672;18.690;2023-04-19T08:55:51;7.34;78.84
71082;SHT31;58740;50.672;18.690;2023-04-19T08:58:28;7.40;78.91
71082;SHT31;58740;50.672;18.690;2023-04-19T09:01:18;7.43;78.62
71082;SHT31;58740;50.672;18.690;2023-04-19T09:04:01;7.44;78.43
71082;SHT31;58740;50.672;18.690;2023-04-19T09:06:54;7.44;78.39
71082;SHT31;58740;50.672;18.690;2023-04-19T09:09:23;7.43;78.41
71082;SHT31;58740;50.672;18.690;2023-04-19T09:11:56;7.42;78.53
71082;SHT31;58740;50.672;18.690;2023-04-19T09:14:25;7.44;78.53
71082;SHT31;58740;50.672;18.690;2023-04-19T09:17:14;7.44;78.48
71082;SHT31;58740;50.672;18.690;2023-04-19T09:19:46;7.42;78.53
71082;SHT31;58740;50.672;18.690;2023-04-19T09:22:17;7.39;78.60
71082;SHT31;58740;50.672;18.690;2023-04-19T09:24:45;7.39;78.73
71082;SHT31;58740;50.672;18.690;2023-04-19T09:27:34;7.37;78.81
71082;SHT31;58740;50.672;18.690;2023-04-19T09:30:03;7.33;78.91
71082;SHT31;58740;50.672;18.690;2023-04-19T09:32:45;7.32;79.00
71082;SHT31;58740;50.672;18.690;2023-04-19T09:35:15;7.29;79.07
71082;SHT31;58740;50.672;18.690;2023-04-19T09:37:59;7.29;79.13
71082;SHT31;58740;50.672;18.690;2023-04-19T09:40:30;7.31;79.22
71082;SHT31;58740;50.672;18.690;2023-04-19T09:42:58;7.36;79.33
71082;SHT31;58740;50.672;18.690;2023-04-19T09:45:46;7.43;79.20
71082;SHT31;58740;50.672;18.690;2023-04-19T09:48:13;7.44;79.17
71082;SHT31;58740;50.672;18.690;2023-04-19T09:51:00;7.48;79.33
71082;SHT31;58740;50.672;18.690;2023-04-19T09:53:33;7.52;79.13
71082;SHT31;58740;50.672;18.690;2023-04-19T09:56:03;7.58;79.02
71082;SHT31;58740;50.672;18.690;2023-04-19T09:58:32;7.61;78.95
71082;SHT31;58740;50.672;18.690;2023-04-19T10:01:03;7.64;79.03
71082;SHT31;58740;50.672;18.690;2023-04-19T10:03:46;7.64;78.80
71082;SHT31;58740;50.672;18.690;2023-04-19T10:06:18;7.62;78.75
71082;SHT31;58740;50.672;18.690;2023-04-19T10:08:49;7.64;78.94
71082;SHT31;58740;50.672;18.690;2023-04-19T10:11:22;7.67;78.95
71082;SHT31;58740;50.672;18.690;2023-04-19T10:13:58;7.70;78.84
71082;SHT31;58740;50.672;18.690;2023-04-19T10:16:30;7.74;78.95
71082;SHT31;58740;50.672;18.690;2023-04-19T10:19:00;7.77;79.03
71082;SHT31;58740;50.672;18.690;2023-04-19T10:21:34;7.79;78.99
71082;SHT31;58740;50.672;18.690;2023-04-19T10:24:03;7.82;78.88
71082;SHT31;58740;50.672;18.690;2023-04-19T10:32:27;7.78;78.64
71082;SHT31;58740;50.672;18.690;2023-04-19T10:35:17;7.78;78.74
71082;SHT31;58740;50.672;18.690;2023-04-19T10:38:06;7.81;78.69
71082;SHT31;58740;50.672;18.690;2023-04-19T10:43:28;7.82;78.51
71082;SHT31;58740;50.672;18.690;2023-04-19T10:46:01;7.78;78.49
71082;SHT31;58740;50.672;18.690;2023-04-19T10:48:36;7.78;78.59
71082;SHT31;58740;50.672;18.690;2023-04-19T10:51:11;7.80;78.72
71082;SHT31;58740;50.672;18.690;2023-04-19T10:53:52;7.81;78.61
71082;SHT31;58740;50.672;18.690;2023-04-19T11:04:07;7.74;78.68
71082;SHT31;58740;50.672;18.690;2023-04-19T11:06:55;7.76;78.80
71082;SHT31;58740;50.672;18.690;2023-04-19T11:12:05;7.78;78.78
71082;SHT31;58740;50.672;18.690;2023-04-19T11:14:44;7.77;78.84
71082;SHT31;58740;50.672;18.690;2023-04-19T11:19:58;7.81;79.00
71082;SHT31;58740;50.672;18.690;2023-04-19T11:22:29;7.84;78.87
71082;SHT31;58740;50.672;18.690;2023-04-19T11:25:17;7.85;78.74
71082;SHT31;58740;50.672;18.690;2023-04-19T11:27:49;7.85;78.77
71082;SHT31;58740;50.672;18.690;2023-04-19T11:30:20;7.85;78.80
71082;SHT31;58740;50.672;18.690;2023-04-19T11:32:55;7.82;78.76
71082;SHT31;58740;50.672;18.690;2023-04-19T11:35:24;7.81;78.80
71082;SHT31;58740;50.672;18.690;2023-04-19T11:37:55;7.81;78.96
71082;SHT31;58740;50.672;18.690;2023-04-19T11:40:25;7.81;78.81
71082;SHT31;58740;50.672;18.690;2023-04-19T11:42:54;7.79;78.80
71082;SHT31;58740;50.672;18.690;2023-04-19T11:45:30;7.80;79.00
71082;SHT31;58740;50.672;18.690;2023-04-19T11:48:06;7.83;79.17
71082;SHT31;58740;50.672;18.690;2023-04-19T11:50:42;7.87;79.06
71082;SHT31;58740;50.672;18.690;2023-04-19T11:53:14;7.91;79.10
71082;SHT31;58740;50.672;18.690;2023-04-19T11:55:53;7.95;79.00
71082;SHT31;58740;50.672;18.690;2023-04-19T11:58:25;7.97;78.87
71082;SHT31;58740;50.672;18.690;2023-04-19T12:01:17;7.98;78.92
71082;SHT31;58740;50.672;18.690;2023-04-19T12:03:48;7.99;78.75
71082;SHT31;58740;50.672;18.690;2023-04-19T12:06:23;8.02;78.72
71082;SHT31;58740;50.672;18.690;2023-04-19T12:08:57;8.04;78.64
71082;SHT31;58740;50.672;18.690;2023-04-19T12:11:41;8.05;78.58
71082;SHT31;58740;50.672;18.690;2023-04-19T12:14:16;8.05;78.49
71082;SHT31;58740;50.672;18.690;2023-04-19T12:19:44;8.08;78.68
71082;SHT31;58740;50.672;18.690;2023-04-19T12:22:14;8.10;78.68
71082;SHT31;58740;50.672;18.690;2023-04-19T12:24:46;8.12;78.70
71082;SHT31;58740;50.672;18.690;2023-04-19T12:27:15;8.15;78.69
71082;SHT31;58740;50.672;18.690;2023-04-19T12:29:44;8.15;78.56
71082;SHT31;58740;50.672;18.690;2023-04-19T12:32:12;8.16;78.64
71082;SHT31;58740;50.672;18.690;2023-04-19T12:34:42;8.17;78.60
71082;SHT31;58740;50.672;18.690;2023-04-19T12:37:10;8.17;78.61
71082;SHT31;58740;50.672;18.690;2023-04-19T12:39:38;8.17;78.64
71082;SHT31;58740;50.672;18.690;2023-04-19T12:42:06;8.18;78.60
71082;SHT31;58740;50.672;18.690;2023-04-19T12:44:34;8.16;78.45
71082;SHT31;58740;50.672;18.690;2023-04-19T12:47:02;8.13;78.53
71082;SHT31;58740;50.672;18.690;2023-04-19T12:49:30;8.10;78.65
71082;SHT31;58740;50.672;18.690;2023-04-19T12:51:57;8.08;78.73
71082;SHT31;58740;50.672;18.690;2023-04-19T12:54:25;8.08;78.77
71082;SHT31;58740;50.672;18.690;2023-04-19T12:56:53;8.07;78.81
71082;SHT31;58740;50.672;18.690;2023-04-19T12:59:21;8.04;78.64
71082;SHT31;58740;50.672;18.690;2023-04-19T13:01:49;8.04;78.68
71082;SHT31;58740;50.672;18.690;2023-04-19T13:04:17;8.03;78.70
71082;SHT31;58740;50.672;18.690;2023-04-19T13:06:46;8.03;78.60
71082;SHT31;58740;50.672;18.690;2023-04-19T13:09:13;8.03;78.51
71082;SHT31;58740;50.672;18.690;2023-04-19T13:11:41;8.02;78.29
71082;SHT31;58740;50.672;18.690;2023-04-19T13:14:09;8.00;78.29
71082;SHT31;58740;50.672;18.690;2023-04-19T13:16:37;7.99;78.17
71082;SHT31;58740;50.672;18.690;2023-04-19T13:19:05;7.98;78.21
71082;SHT31;58740;50.672;18.690;2023-04-19T13:21:33;7.98;78.21
71082;SHT31;58740;50.672;18.690;2023-04-19T13:24:00;7.98;78.25
71082;SHT31;58740;50.672;18.690;2023-04-19T13:26:28;8.00;78.19
71082;SHT31;58740;50.672;18.690;2023-04-19T13:28:57;8.00;78.24
71082;SHT31;58740;50.672;18.690;2023-04-19T13:31:25;7.99;78.14
71082;SHT31;58740;50.672;18.690;2023-04-19T13:33:53;7.95;78.11
71082;SHT31;58740;50.672;18.690;2023-04-19T13:36:21;7.94;78.30
71082;SHT31;58740;50.672;18.690;2023-04-19T13:38:49;7.95;78.39
71082;SHT31;58740;50.672;18.690;2023-04-19T13:41:17;7.93;78.00
71082;SHT31;58740;50.672;18.690;2023-04-19T13:43:46;7.93;78.02
71082;SHT31;58740;50.672;18.690;2023-04-19T13:46:14;7.91;78.16
71082;SHT31;58740;50.672;18.690;2023-04-19T13:48:42;7.93;78.17
71082;SHT31;58740;50.672;18.690;2023-04-19T13:51:09;7.91;78.14
71082;SHT31;58740;50.672;18.690;2023-04-19T13:53:37;7.91;78.36
71082;SHT31;58740;50.672;18.690;2023-04-19T13:56:07;7.86;78.27
71082;SHT31;58740;50.672;18.690;2023-04-19T13:58:38;7.82;78.47
71082;SHT31;58740;50.672;18.690;2023-04-19T14:01:06;7.82;78.80
71082;SHT31;58740;50.672;18.690;2023-04-19T14:03:34;7.82;78.73
71082;SHT31;58740;50.672;18.690;2023-04-19T14:06:02;7.82;78.94
71082;SHT31;58740;50.672;18.690;2023-04-19T14:08:30;7.84;79.18
71082;SHT31;58740;50.672;18.690;2023-04-19T14:10:58;7.85;79.04
71082;SHT31;58740;50.672;18.690;2023-04-19T14:13:26;7.84;79.02
71082;SHT31;58740;50.672;18.690;2023-04-19T14:15:54;7.83;79.12
71082;SHT31;58740;50.672;18.690;2023-04-19T14:18:21;7.85;79.15
71082;SHT31;58740;50.672;18.690;2023-04-19T14:20:49;7.82;79.11
71082;SHT31;58740;50.672;18.690;2023-04-19T14:23:17;7.82;79.37
71082;SHT31;58740;50.672;18.690;2023-04-19T14:25:45;7.82;79.43
71082;SHT31;58740;50.672;18.690;2023-04-19T14:28:16;7.82;79.33
71082;SHT31;58740;50.672;18.690;2023-04-19T14:30:44;7.79;79.23
71082;SHT31;58740;50.672;18.690;2023-04-19T14:33:11;7.73;79.36
71082;SHT31;58740;50.672;18.690;2023-04-19T14:35:40;7.72;79.59
71082;SHT31;58740;50.672;18.690;2023-04-19T14:38:08;7.71;79.68
71082;SHT31;58740;50.672;18.690;2023-04-19T14:40:36;7.69;79.72
71082;SHT31;58740;50.672;18.690;2023-04-19T14:43:04;7.70;79.91
71082;SHT31;58740;50.672;18.690;2023-04-19T14:45:31;7.70;79.86
71082;SHT31;58740;50.672;18.690;2023-04-19T14:47:59;7.67;79.76
71082;SHT31;58740;50.672;18.690;2023-04-19T14:50:27;7.64;79.75
71082;SHT31;58740;50.672;18.690;2023-04-19T14:52:55;7.63;79.74
71082;SHT31;58740;50.672;18.690;2023-04-19T14:55:23;7.62;79.75
71082;SHT31;58740;50.672;18.690;2023-04-19T14:57:53;7.60;79.77
71082;SHT31;58740;50.672;18.690;2023-04-19T15:00:21;7.59;79.88
71082;SHT31;58740;50.672;18.690;2023-04-19T15:02:49;7.61;79.99
71082;SHT31;58740;50.672;18.690;2023-04-19T15:05:17;7.61;80.00
71082;SHT31;58740;50.672;18.690;2023-04-19T15:07:45;7.62;80.06
71082;SHT31;58740;50.672;18.690;2023-04-19T15:10:13;7.63;80.03
71082;SHT31;58740;50.672;18.690;2023-04-19T15:12:40;7.63;80.03
71082;SHT31;58740;50.672;18.690;2023-04-19T15:15:08;7.64;80.10
71082;SHT31;58740;50.672;18.690;2023-04-19T15:17:36;7.62;80.16
71082;SHT31;58740;50.672;18.690;2023-04-19T15:20:05;7.61;80.23
71082;SHT31;58740;50.672;18.690;2023-04-19T15:22:34;7.60;80.19
71082;SHT31;58740;50.672;18.690;2023-04-19T15:25:02;7.60;80.31
71082;SHT31;58740;50.672;18.690;2023-04-19T15:27:30;7.58;80.36
71082;SHT31;58740;50.672;18.690;2023-04-19T15:29:58;7.55;80.40
71082;SHT31;58740;50.672;18.690;2023-04-19T15:32:26;7.56;80.41
71082;SHT31;58740;50.672;18.690;2023-04-19T15:34:56;7.57;80.40
71082;SHT31;58740;50.672;18.690;2023-04-19T15:37:24;7.57;80.41
71082;SHT31;58740;50.672;18.690;2023-04-19T15:39:51;7.58;80.47
71082;SHT31;58740;50.672;18.690;2023-04-19T15:42:19;7.59;80.49
71082;SHT31;58740;50.672;18.690;2023-04-19T15:44:47;7.60;80.38
71082;SHT31;58740;50.672;18.690;2023-04-19T15:47:14;7.57;80.34
71082;SHT31;58740;50.672;18.690;2023-04-19T15:49:42;7.59;80.52
71082;SHT31;58740;50.672;18.690;2023-04-19T15:52:10;7.60;80.50
71082;SHT31;58740;50.672;18.690;2023-04-19T15:54:38;7.61;80.51
71082;SHT31;58740;50.672;18.690;2023-04-19T15:57:06;7.62;80.51
71082;SHT31;58740;50.672;18.690;2023-04-19T15:59:34;7.62;80.56
71082;SHT31;58740;50.672;18.690;2023-04-19T16:02:02;7.62;80.58
71082;SHT31;58740;50.672;18.690;2023-04-19T16:04:29;7.62;80.57
71082;SHT31;58740;50.672;18.690;2023-04-19T16:06:58;7.62;80.60
71082;SHT31;58740;50.672;18.690;2023-04-19T16:09:26;7.62;80.60